sensor_id;sensor_type;location;lat;lon;timestamp;temperature;humidity
26103;DHT22;69760;49.380;8.998;2023-07-31T00:06:24;18.00;99.90
26103;DHT22;69760;49.380;8.998;2023-07-31T00:08:50;18.00;99.90
26103;DHT22;69760;49.380;8.998;2023-07-31T00:11:15;18.00;99.90
26103;DHT22;69760;49.380;8.998;2023-07-31T00:13:41;17.90;99.90
26103;DHT22;69760;49.380;8.998;2023-07-31T00:42:19;17.70;99.90
26103;DHT22;69760;49.380;8.998;2023-07-31T01:51:03;17.50;99.90
26103;DHT22;69760;49.380;8.998;2023-07-31T01:53:30;17.50;99.90
26103;DHT22;69760;49.380;8.998;2023-07-31T02:03:02;17.60;99.90
26103;DHT22;69760;49.380;8.998;2023-07-31T03:03:00;18.00;98.20
26103;DHT22;69760;49.380;8.998;2023-07-31T03:17:15;17.90;98.50
26103;DHT22;69760;49.380;8.998;2023-07-31T03:19:40;17.90;98.30
26103;DHT22;69760;49.380;8.998;2023-07-31T03:22:06;17.90;98.50
26103;DHT22;69760;49.380;8.998;2023-07-31T04:05:07;17.80;98.50
26103;DHT22;69760;49.380;8.998;2023-07-31T04:07:33;18.10;98.50
26103;DHT22;69760;49.380;8.998;2023-07-31T04:09:59;18.10;98.50
26103;DHT22;69760;49.380;8.998;2023-07-31T04:12:25;18.10;98.50
26103;DHT22;69760;49.380;8.998;2023-07-31T04:14:50;18.10;98.70
26103;DHT22;69760;49.380;8.998;2023-07-31T04:17:17;18.00;98.60
26103;DHT22;69760;49.380;8.998;2023-07-31T04:19:43;18.00;98.50
26103;DHT22;69760;49.380;8.998;2023-07-31T04:22:08;17.90;98.80
26103;DHT22;69760;49.380;8.998;2023-07-31T04:24:34;17.90;99.10
26103;DHT22;69760;49.380;8.998;2023-07-31T04:26:59;17.90;98.90
26103;DHT22;69760;49.380;8.998;2023-07-31T04:29:25;17.80;98.90
26103;DHT22;69760;49.380;8.998;2023-07-31T04:31:50;17.90;99.10
26103;DHT22;69760;49.380;8.998;2023-07-31T04:34:16;17.80;98.90
26103;DHT22;69760;49.380;8.998;2023-07-31T04:36:41;17.80;99.10
26103;DHT22;69760;49.380;8.998;2023-07-31T04:39:07;17.80;99.00
26103;DHT22;69760;49.380;8.998;2023-07-31T04:41:33;17.80;99.50
26103;DHT22;69760;49.380;8.998;2023-07-31T04:43:58;17.80;99.10
26103;DHT22;69760;49.380;8.998;2023-07-31T04:46:24;17.80;99.10
26103;DHT22;69760;49.380;8.998;2023-07-31T04:48:49;17.70;99.20
26103;DHT22;69760;49.380;8.998;2023-07-31T04:51:15;17.80;99.20
26103;DHT22;69760;49.380;8.998;2023-07-31T04:53:40;17.80;99.10
26103;DHT22;69760;49.380;8.998;2023-07-31T04:56:06;17.70;99.10
26103;DHT22;69760;49.380;8.998;2023-07-31T04:58:31;17.70;99.30
26103;DHT22;69760;49.380;8.998;2023-07-31T05:00:57;17.70;99.30
26103;DHT22;69760;49.380;8.998;2023-07-31T05:03:22;17.70;99.30
26103;DHT22;69760;49.380;8.998;2023-07-31T05:05:49;17.70;99.30
26103;DHT22;69760;49.380;8.998;2023-07-31T05:08:15;17.70;99.50
26103;DHT22;69760;49.380;8.998;2023-07-31T05:10:43;17.70;99.30
26103;DHT22;69760;49.380;8.998;2023-07-31T05:13:08;17.70;99.20
26103;DHT22;69760;49.380;8.998;2023-07-31T05:15:34;17.70;99.50
26103;DHT22;69760;49.380;8.998;2023-07-31T05:17:59;17.70;99.60
26103;DHT22;69760;49.380;8.998;2023-07-31T05:20:25;17.70;99.10
26103;DHT22;69760;49.380;8.998;2023-07-31T05:22:51;17.60;99.30
26103;DHT22;69760;49.380;8.998;2023-07-31T05:25:16;17.70;99.20
26103;DHT22;69760;49.380;8.998;2023-07-31T05:27:42;17.70;99.30
26103;DHT22;69760;49.380;8.998;2023-07-31T05:30:08;17.70;99.10
26103;DHT22;69760;49.380;8.998;2023-07-31T05:32:34;17.80;99.00
26103;DHT22;69760;49.380;8.998;2023-07-31T05:34:59;17.80;99.20
26103;DHT22;69760;49.380;8.998;2023-07-31T05:37:25;17.80;99.40
26103;DHT22;69760;49.380;8.998;2023-07-31T05:39:50;17.90;99.20
26103;DHT22;69760;49.380;8.998;2023-07-31T05:42:17;17.90;99.10
26103;DHT22;69760;49.380;8.998;2023-07-31T05:44:43;17.80;99.00
26103;DHT22;69760;49.380;8.998;2023-07-31T05:47:09;17.80;99.20
26103;DHT22;69760;49.380;8.998;2023-07-31T05:49:34;17.80;99.10
26103;DHT22;69760;49.380;8.998;2023-07-31T05:52:00;17.90;99.20
26103;DHT22;69760;49.380;8.998;2023-07-31T05:54:25;17.80;99.30
26103;DHT22;69760;49.380;8.998;2023-07-31T05:56:51;17.80;99.30
26103;DHT22;69760;49.380;8.998;2023-07-31T05:59:16;17.80;99.60
26103;DHT22;69760;49.380;8.998;2023-07-31T06:01:42;17.80;99.50
26103;DHT22;69760;49.380;8.998;2023-07-31T06:04:08;17.80;99.80
26103;DHT22;69760;49.380;8.998;2023-07-31T06:06:34;17.90;99.90
26103;DHT22;69760;49.380;8.998;2023-07-31T06:08:59;17.90;99.90
26103;DHT22;69760;49.380;8.998;2023-07-31T06:11:25;18.00;99.70
26103;DHT22;69760;49.380;8.998;2023-07-31T06:13:51;18.10;99.70
26103;DHT22;69760;49.380;8.998;2023-07-31T06:16:16;18.10;99.30
26103;DHT22;69760;49.380;8.998;2023-07-31T06:18:42;18.10;99.30
26103;DHT22;69760;49.380;8.998;2023-07-31T06:21:08;18.20;98.90
26103;DHT22;69760;49.380;8.998;2023-07-31T06:23:34;18.30;99.40
26103;DHT22;69760;49.380;8.998;2023-07-31T06:26:00;18.40;99.20
26103;DHT22;69760;49.380;8.998;2023-07-31T06:28:30;18.50;98.80
26103;DHT22;69760;49.380;8.998;2023-07-31T06:30:57;18.50;98.40
26103;DHT22;69760;49.380;8.998;2023-07-31T06:33:22;18.60;98.50
26103;DHT22;69760;49.380;8.998;2023-07-31T06:35:48;18.70;98.00
26103;DHT22;69760;49.380;8.998;2023-07-31T06:38:13;18.60;98.10
26103;DHT22;69760;49.380;8.998;2023-07-31T06:40:39;18.70;98.20
26103;DHT22;69760;49.380;8.998;2023-07-31T06:43:05;18.80;97.70
26103;DHT22;69760;49.380;8.998;2023-07-31T06:45:34;18.80;97.80
26103;DHT22;69760;49.380;8.998;2023-07-31T06:48:00;18.70;97.50
26103;DHT22;69760;49.380;8.998;2023-07-31T06:50:30;18.70;97.90
26103;DHT22;69760;49.380;8.998;2023-07-31T06:52:56;18.80;97.90
26103;DHT22;69760;49.380;8.998;2023-07-31T06:55:23;18.80;97.80
26103;DHT22;69760;49.380;8.998;2023-07-31T06:57:54;18.90;97.80
26103;DHT22;69760;49.380;8.998;2023-07-31T07:00:20;18.90;97.60
26103;DHT22;69760;49.380;8.998;2023-07-31T07:02:47;18.90;97.60
26103;DHT22;69760;49.380;8.998;2023-07-31T07:05:13;18.90;97.60
26103;DHT22;69760;49.380;8.998;2023-07-31T07:07:39;18.90;97.80
26103;DHT22;69760;49.380;8.998;2023-07-31T07:10:05;18.90;97.80
26103;DHT22;69760;49.380;8.998;2023-07-31T07:12:32;18.90;97.80
26103;DHT22;69760;49.380;8.998;2023-07-31T07:14:58;19.00;97.60
26103;DHT22;69760;49.380;8.998;2023-07-31T07:17:25;19.00;97.70
26103;DHT22;69760;49.380;8.998;2023-07-31T07:19:50;19.00;97.50
26103;DHT22;69760;49.380;8.998;2023-07-31T07:22:16;18.90;97.40
26103;DHT22;69760;49.380;8.998;2023-07-31T07:24:42;18.90;97.90
26103;DHT22;69760;49.380;8.998;2023-07-31T07:27:07;18.90;97.60
26103;DHT22;69760;49.380;8.998;2023-07-31T07:29:38;18.90;97.40
26103;DHT22;69760;49.380;8.998;2023-07-31T07:32:04;18.90;97.80
26103;DHT22;69760;49.380;8.998;2023-07-31T07:34:29;18.90;97.70
26103;DHT22;69760;49.380;8.998;2023-07-31T07:36:55;19.00;97.60
26103;DHT22;69760;49.380;8.998;2023-07-31T07:39:21;19.00;97.80
26103;DHT22;69760;49.380;8.998;2023-07-31T07:41:47;19.10;97.80
26103;DHT22;69760;49.380;8.998;2023-07-31T07:44:13;19.20;97.60
26103;DHT22;69760;49.380;8.998;2023-07-31T07:46:39;19.30;97.40
26103;DHT22;69760;49.380;8.998;2023-07-31T07:49:05;19.40;97.20
26103;DHT22;69760;49.380;8.998;2023-07-31T07:51:30;19.40;96.70
26103;DHT22;69760;49.380;8.998;2023-07-31T07:53:57;19.40;96.30
26103;DHT22;69760;49.380;8.998;2023-07-31T07:56:23;19.40;96.40
26103;DHT22;69760;49.380;8.998;2023-07-31T07:58:49;19.40;96.70
26103;DHT22;69760;49.380;8.998;2023-07-31T08:01:15;19.40;96.20
26103;DHT22;69760;49.380;8.998;2023-07-31T08:03:41;19.50;96.40
26103;DHT22;69760;49.380;8.998;2023-07-31T08:06:07;19.50;96.70
26103;DHT22;69760;49.380;8.998;2023-07-31T08:08:35;19.70;96.50
26103;DHT22;69760;49.380;8.998;2023-07-31T08:11:00;19.70;95.80
26103;DHT22;69760;49.380;8.998;2023-07-31T08:13:26;19.80;95.60
26103;DHT22;69760;49.380;8.998;2023-07-31T08:15:51;19.90;95.20
26103;DHT22;69760;49.380;8.998;2023-07-31T08:18:17;20.00;95.20
26103;DHT22;69760;49.380;8.998;2023-07-31T08:20:42;20.00;94.90
26103;DHT22;69760;49.380;8.998;2023-07-31T08:23:09;20.10;95.00
26103;DHT22;69760;49.380;8.998;2023-07-31T08:25:35;20.10;95.00
26103;DHT22;69760;49.380;8.998;2023-07-31T08:28:02;20.20;95.00
26103;DHT22;69760;49.380;8.998;2023-07-31T08:30:28;20.30;94.50
26103;DHT22;69760;49.380;8.998;2023-07-31T08:32:53;20.40;95.00
26103;DHT22;69760;49.380;8.998;2023-07-31T08:35:19;20.50;94.30
26103;DHT22;69760;49.380;8.998;2023-07-31T08:37:44;20.50;94.00
26103;DHT22;69760;49.380;8.998;2023-07-31T08:40:10;20.50;93.60
26103;DHT22;69760;49.380;8.998;2023-07-31T08:42:53;20.50;94.00
26103;DHT22;69760;49.380;8.998;2023-07-31T08:45:19;20.60;94.00
26103;DHT22;69760;49.380;8.998;2023-07-31T08:47:49;20.60;93.20
26103;DHT22;69760;49.380;8.998;2023-07-31T08:50:16;20.70;94.00
26103;DHT22;69760;49.380;8.998;2023-07-31T08:52:42;20.70;93.30
26103;DHT22;69760;49.380;8.998;2023-07-31T08:55:09;20.90;93.90
26103;DHT22;69760;49.380;8.998;2023-07-31T08:57:37;20.90;93.80
26103;DHT22;69760;49.380;8.998;2023-07-31T09:00:04;21.00;93.20
26103;DHT22;69760;49.380;8.998;2023-07-31T09:02:47;21.00;92.50
26103;DHT22;69760;49.380;8.998;2023-07-31T09:05:14;21.00;92.50
26103;DHT22;69760;49.380;8.998;2023-07-31T09:07:43;21.10;92.70
26103;DHT22;69760;49.380;8.998;2023-07-31T09:10:12;21.10;92.00
26103;DHT22;69760;49.380;8.998;2023-07-31T09:12:38;21.20;92.20
26103;DHT22;69760;49.380;8.998;2023-07-31T09:15:04;21.30;92.10
26103;DHT22;69760;49.380;8.998;2023-07-31T09:17:31;21.30;91.50
26103;DHT22;69760;49.380;8.998;2023-07-31T09:19:57;21.30;91.90
26103;DHT22;69760;49.380;8.998;2023-07-31T09:22:32;21.30;91.10
26103;DHT22;69760;49.380;8.998;2023-07-31T09:25:17;21.30;91.10
26103;DHT22;69760;49.380;8.998;2023-07-31T09:30:12;21.30;91.20
26103;DHT22;69760;49.380;8.998;2023-07-31T09:32:38;21.30;91.10
26103;DHT22;69760;49.380;8.998;2023-07-31T09:35:14;21.30;91.00
26103;DHT22;69760;49.380;8.998;2023-07-31T09:37:43;21.30;90.90
26103;DHT22;69760;49.380;8.998;2023-07-31T09:40:28;21.20;91.40
26103;DHT22;69760;49.380;8.998;2023-07-31T09:42:56;21.20;91.50
26103;DHT22;69760;49.380;8.998;2023-07-31T09:45:23;21.30;91.40
26103;DHT22;69760;49.380;8.998;2023-07-31T09:47:48;21.30;91.30
26103;DHT22;69760;49.380;8.998;2023-07-31T09:50:14;21.30;91.00
26103;DHT22;69760;49.380;8.998;2023-07-31T09:52:41;21.30;91.60
26103;DHT22;69760;49.380;8.998;2023-07-31T09:55:08;21.40;91.70
26103;DHT22;69760;49.380;8.998;2023-07-31T09:57:34;21.50;91.60
26103;DHT22;69760;49.380;8.998;2023-07-31T10:00:02;21.60;91.70
26103;DHT22;69760;49.380;8.998;2023-07-31T10:02:28;21.70;91.20
26103;DHT22;69760;49.380;8.998;2023-07-31T10:04:57;21.90;91.30
26103;DHT22;69760;49.380;8.998;2023-07-31T10:07:25;22.00;90.90
26103;DHT22;69760;49.380;8.998;2023-07-31T10:09:51;22.20;90.10
26103;DHT22;69760;49.380;8.998;2023-07-31T10:12:19;22.30;87.90
26103;DHT22;69760;49.380;8.998;2023-07-31T10:14:46;22.40;86.00
26103;DHT22;69760;49.380;8.998;2023-07-31T10:17:12;22.40;84.50
26103;DHT22;69760;49.380;8.998;2023-07-31T10:19:39;22.30;84.90
26103;DHT22;69760;49.380;8.998;2023-07-31T10:22:05;22.30;86.10
26103;DHT22;69760;49.380;8.998;2023-07-31T10:24:32;22.20;86.70
26103;DHT22;69760;49.380;8.998;2023-07-31T10:27:00;22.10;86.00
26103;DHT22;69760;49.380;8.998;2023-07-31T10:29:27;22.10;86.20
26103;DHT22;69760;49.380;8.998;2023-07-31T10:31:56;22.10;85.00
26103;DHT22;69760;49.380;8.998;2023-07-31T10:34:23;22.10;86.20
26103;DHT22;69760;49.380;8.998;2023-07-31T10:36:49;22.20;86.60
26103;DHT22;69760;49.380;8.998;2023-07-31T10:39:34;22.20;86.90
26103;DHT22;69760;49.380;8.998;2023-07-31T10:42:10;22.30;86.20
26103;DHT22;69760;49.380;8.998;2023-07-31T10:44:36;22.40;85.60
26103;DHT22;69760;49.380;8.998;2023-07-31T10:47:02;22.40;85.00
26103;DHT22;69760;49.380;8.998;2023-07-31T10:49:29;22.40;83.70
26103;DHT22;69760;49.380;8.998;2023-07-31T10:51:57;22.40;84.00
26103;DHT22;69760;49.380;8.998;2023-07-31T10:54:22;22.40;85.30
26103;DHT22;69760;49.380;8.998;2023-07-31T10:56:53;22.40;84.20
26103;DHT22;69760;49.380;8.998;2023-07-31T10:59:19;22.40;85.00
26103;DHT22;69760;49.380;8.998;2023-07-31T11:01:53;22.40;85.30
26103;DHT22;69760;49.380;8.998;2023-07-31T11:04:24;22.40;85.50
26103;DHT22;69760;49.380;8.998;2023-07-31T11:07:01;22.60;85.50
26103;DHT22;69760;49.380;8.998;2023-07-31T11:09:29;22.80;84.00
26103;DHT22;69760;49.380;8.998;2023-07-31T11:11:56;22.90;83.60
26103;DHT22;69760;49.380;8.998;2023-07-31T11:14:22;23.10;83.50
26103;DHT22;69760;49.380;8.998;2023-07-31T11:16:50;22.90;81.60
26103;DHT22;69760;49.380;8.998;2023-07-31T11:19:25;22.70;81.90
26103;DHT22;69760;49.380;8.998;2023-07-31T11:21:54;22.70;81.80
26103;DHT22;69760;49.380;8.998;2023-07-31T11:24:20;22.60;83.20
26103;DHT22;69760;49.380;8.998;2023-07-31T11:26:52;22.60;82.30
26103;DHT22;69760;49.380;8.998;2023-07-31T11:29:27;22.50;83.20
26103;DHT22;69760;49.380;8.998;2023-07-31T11:31:52;22.50;83.60
26103;DHT22;69760;49.380;8.998;2023-07-31T11:34:18;22.40;84.00
26103;DHT22;69760;49.380;8.998;2023-07-31T11:36:55;22.30;83.80
26103;DHT22;69760;49.380;8.998;2023-07-31T11:39:21;22.40;85.30
26103;DHT22;69760;49.380;8.998;2023-07-31T11:41:47;22.50;85.00
26103;DHT22;69760;49.380;8.998;2023-07-31T11:44:12;22.60;83.70
26103;DHT22;69760;49.380;8.998;2023-07-31T11:46:38;22.70;84.00
26103;DHT22;69760;49.380;8.998;2023-07-31T11:49:04;22.90;83.30
26103;DHT22;69760;49.380;8.998;2023-07-31T11:51:31;23.10;81.80
26103;DHT22;69760;49.380;8.998;2023-07-31T11:53:58;23.30;81.60
26103;DHT22;69760;49.380;8.998;2023-07-31T11:56:25;23.30;81.30
26103;DHT22;69760;49.380;8.998;2023-07-31T11:58:55;23.30;80.10
26103;DHT22;69760;49.380;8.998;2023-07-31T12:01:22;23.30;80.60
26103;DHT22;69760;49.380;8.998;2023-07-31T12:03:49;23.20;80.90
26103;DHT22;69760;49.380;8.998;2023-07-31T12:06:15;23.30;80.90
26103;DHT22;69760;49.380;8.998;2023-07-31T12:08:41;23.30;81.10
26103;DHT22;69760;49.380;8.998;2023-07-31T12:11:09;23.40;82.40
26103;DHT22;69760;49.380;8.998;2023-07-31T12:13:39;23.40;81.80
26103;DHT22;69760;49.380;8.998;2023-07-31T12:16:04;23.50;81.50
26103;DHT22;69760;49.380;8.998;2023-07-31T12:18:35;23.60;79.80
26103;DHT22;69760;49.380;8.998;2023-07-31T12:21:03;23.50;80.30
26103;DHT22;69760;49.380;8.998;2023-07-31T12:23:33;23.40;81.00
26103;DHT22;69760;49.380;8.998;2023-07-31T12:26:04;23.40;81.10
26103;DHT22;69760;49.380;8.998;2023-07-31T12:28:30;23.40;81.90
26103;DHT22;69760;49.380;8.998;2023-07-31T12:31:00;23.30;81.60
26103;DHT22;69760;49.380;8.998;2023-07-31T12:33:31;23.30;80.70
26103;DHT22;69760;49.380;8.998;2023-07-31T12:35:58;23.40;81.60
26103;DHT22;69760;49.380;8.998;2023-07-31T12:38:23;23.40;81.00
26103;DHT22;69760;49.380;8.998;2023-07-31T12:40:49;23.60;82.60
26103;DHT22;69760;49.380;8.998;2023-07-31T12:43:15;23.90;81.60
26103;DHT22;69760;49.380;8.998;2023-07-31T12:45:41;24.00;79.40
26103;DHT22;69760;49.380;8.998;2023-07-31T12:48:06;24.00;79.60
26103;DHT22;69760;49.380;8.998;2023-07-31T12:50:32;23.90;80.70
26103;DHT22;69760;49.380;8.998;2023-07-31T12:52:57;23.90;80.20
26103;DHT22;69760;49.380;8.998;2023-07-31T12:55:23;23.90;80.30
26103;DHT22;69760;49.380;8.998;2023-07-31T12:57:50;23.90;81.80
26103;DHT22;69760;49.380;8.998;2023-07-31T13:00:16;24.00;80.70
26103;DHT22;69760;49.380;8.998;2023-07-31T13:02:41;24.10;80.90
26103;DHT22;69760;49.380;8.998;2023-07-31T13:05:07;24.30;81.60
26103;DHT22;69760;49.380;8.998;2023-07-31T13:07:33;24.60;80.30
26103;DHT22;69760;49.380;8.998;2023-07-31T13:09:59;24.70;78.80
26103;DHT22;69760;49.380;8.998;2023-07-31T13:12:24;24.70;78.10
26103;DHT22;69760;49.380;8.998;2023-07-31T13:14:50;24.80;79.20
26103;DHT22;69760;49.380;8.998;2023-07-31T13:17:16;24.70;76.10
26103;DHT22;69760;49.380;8.998;2023-07-31T13:19:42;24.50;76.90
26103;DHT22;69760;49.380;8.998;2023-07-31T13:22:08;24.20;78.00
26103;DHT22;69760;49.380;8.998;2023-07-31T13:24:33;23.90;78.60
26103;DHT22;69760;49.380;8.998;2023-07-31T13:26:59;23.80;79.40
26103;DHT22;69760;49.380;8.998;2023-07-31T13:29:25;23.70;80.40
26103;DHT22;69760;49.380;8.998;2023-07-31T13:31:51;23.50;80.00
26103;DHT22;69760;49.380;8.998;2023-07-31T13:34:17;23.40;81.40
26103;DHT22;69760;49.380;8.998;2023-07-31T13:36:42;23.40;81.60
26103;DHT22;69760;49.380;8.998;2023-07-31T13:39:08;23.30;81.20
26103;DHT22;69760;49.380;8.998;2023-07-31T13:41:34;23.40;81.70
26103;DHT22;69760;49.380;8.998;2023-07-31T13:43:59;23.50;80.80
26103;DHT22;69760;49.380;8.998;2023-07-31T13:46:25;23.60;81.60
26103;DHT22;69760;49.380;8.998;2023-07-31T13:48:51;23.70;82.30
26103;DHT22;69760;49.380;8.998;2023-07-31T13:51:20;23.90;80.70
26103;DHT22;69760;49.380;8.998;2023-07-31T13:53:45;24.10;80.90
26103;DHT22;69760;49.380;8.998;2023-07-31T13:56:11;24.10;80.60
26103;DHT22;69760;49.380;8.998;2023-07-31T13:58:36;24.30;81.30
26103;DHT22;69760;49.380;8.998;2023-07-31T14:01:02;24.50;80.10
26103;DHT22;69760;49.380;8.998;2023-07-31T14:03:28;24.70;78.70
26103;DHT22;69760;49.380;8.998;2023-07-31T14:05:55;24.70;77.40
26103;DHT22;69760;49.380;8.998;2023-07-31T14:08:21;24.50;77.60
26103;DHT22;69760;49.380;8.998;2023-07-31T14:10:47;24.40;78.00
26103;DHT22;69760;49.380;8.998;2023-07-31T14:13:12;24.20;79.00
26103;DHT22;69760;49.380;8.998;2023-07-31T14:15:41;24.10;78.10
26103;DHT22;69760;49.380;8.998;2023-07-31T14:18:07;24.10;78.70
26103;DHT22;69760;49.380;8.998;2023-07-31T14:20:33;24.10;79.00
26103;DHT22;69760;49.380;8.998;2023-07-31T14:22:58;24.00;80.30
26103;DHT22;69760;49.380;8.998;2023-07-31T14:25:24;24.00;80.40
26103;DHT22;69760;49.380;8.998;2023-07-31T14:27:50;24.00;80.10
26103;DHT22;69760;49.380;8.998;2023-07-31T14:30:15;23.90;78.40
26103;DHT22;69760;49.380;8.998;2023-07-31T14:32:42;23.70;78.80
26103;DHT22;69760;49.380;8.998;2023-07-31T14:35:08;23.50;79.70
26103;DHT22;69760;49.380;8.998;2023-07-31T14:37:41;23.50;81.10
26103;DHT22;69760;49.380;8.998;2023-07-31T14:40:07;23.60;81.10
26103;DHT22;69760;49.380;8.998;2023-07-31T14:42:34;23.40;79.90
26103;DHT22;69760;49.380;8.998;2023-07-31T14:45:00;23.30;80.50
26103;DHT22;69760;49.380;8.998;2023-07-31T14:47:25;23.30;81.60
26103;DHT22;69760;49.380;8.998;2023-07-31T14:49:51;23.50;82.70
26103;DHT22;69760;49.380;8.998;2023-07-31T14:52:16;23.90;80.30
26103;DHT22;69760;49.380;8.998;2023-07-31T14:54:42;24.00;79.40
26103;DHT22;69760;49.380;8.998;2023-07-31T14:57:08;24.00;79.10
26103;DHT22;69760;49.380;8.998;2023-07-31T14:59:33;23.90;80.40
26103;DHT22;69760;49.380;8.998;2023-07-31T15:01:59;23.90;81.30
26103;DHT22;69760;49.380;8.998;2023-07-31T15:04:25;23.90;80.90
26103;DHT22;69760;49.380;8.998;2023-07-31T15:06:51;23.90;80.10
26103;DHT22;69760;49.380;8.998;2023-07-31T15:09:17;23.80;80.60
26103;DHT22;69760;49.380;8.998;2023-07-31T15:11:42;23.70;81.30
26103;DHT22;69760;49.380;8.998;2023-07-31T15:14:08;23.70;82.60
26103;DHT22;69760;49.380;8.998;2023-07-31T15:16:34;23.70;83.80
26103;DHT22;69760;49.380;8.998;2023-07-31T15:18:59;23.80;83.40
26103;DHT22;69760;49.380;8.998;2023-07-31T15:21:25;23.90;81.10
26103;DHT22;69760;49.380;8.998;2023-07-31T15:23:51;24.00;81.40
26103;DHT22;69760;49.380;8.998;2023-07-31T15:26:16;24.20;80.50
26103;DHT22;69760;49.380;8.998;2023-07-31T15:28:42;24.40;80.50
26103;DHT22;69760;49.380;8.998;2023-07-31T15:31:08;24.70;79.80
26103;DHT22;69760;49.380;8.998;2023-07-31T15:33:34;25.00;77.50
26103;DHT22;69760;49.380;8.998;2023-07-31T15:35:59;25.10;77.10
26103;DHT22;69760;49.380;8.998;2023-07-31T15:38:25;25.20;77.60
26103;DHT22;69760;49.380;8.998;2023-07-31T15:40:51;25.30;76.60
26103;DHT22;69760;49.380;8.998;2023-07-31T15:43:19;25.10;75.90
26103;DHT22;69760;49.380;8.998;2023-07-31T15:45:44;25.10;76.90
26103;DHT22;69760;49.380;8.998;2023-07-31T15:48:10;25.10;78.60
26103;DHT22;69760;49.380;8.998;2023-07-31T15:50:35;25.10;76.80
26103;DHT22;69760;49.380;8.998;2023-07-31T15:53:01;24.80;77.10
26103;DHT22;69760;49.380;8.998;2023-07-31T15:55:26;24.70;77.10
26103;DHT22;69760;49.380;8.998;2023-07-31T15:57:52;24.60;78.00
26103;DHT22;69760;49.380;8.998;2023-07-31T16:00:18;24.60;79.20
26103;DHT22;69760;49.380;8.998;2023-07-31T16:02:44;24.50;78.90
26103;DHT22;69760;49.380;8.998;2023-07-31T16:05:09;24.40;78.60
26103;DHT22;69760;49.380;8.998;2023-07-31T16:07:35;24.40;79.40
26103;DHT22;69760;49.380;8.998;2023-07-31T16:10:01;24.20;80.00
26103;DHT22;69760;49.380;8.998;2023-07-31T16:12:27;24.10;79.80
26103;DHT22;69760;49.380;8.998;2023-07-31T16:14:52;24.10;80.10
26103;DHT22;69760;49.380;8.998;2023-07-31T16:17:18;24.10;80.40
26103;DHT22;69760;49.380;8.998;2023-07-31T16:19:44;23.90;80.70
26103;DHT22;69760;49.380;8.998;2023-07-31T16:22:10;23.90;81.20
26103;DHT22;69760;49.380;8.998;2023-07-31T16:24:35;23.80;81.70
26103;DHT22;69760;49.380;8.998;2023-07-31T16:27:02;23.80;81.10
26103;DHT22;69760;49.380;8.998;2023-07-31T16:29:28;23.70;81.30
26103;DHT22;69760;49.380;8.998;2023-07-31T16:31:53;23.70;81.30
26103;DHT22;69760;49.380;8.998;2023-07-31T16:34:19;23.70;81.90
26103;DHT22;69760;49.380;8.998;2023-07-31T16:36:44;23.60;81.70
26103;DHT22;69760;49.380;8.998;2023-07-31T16:39:10;23.50;82.10
26103;DHT22;69760;49.380;8.998;2023-07-31T16:41:35;23.50;82.40
26103;DHT22;69760;49.380;8.998;2023-07-31T16:44:01;23.50;81.50
26103;DHT22;69760;49.380;8.998;2023-07-31T16:46:26;23.40;82.10
26103;DHT22;69760;49.380;8.998;2023-07-31T16:48:52;23.50;82.00
26103;DHT22;69760;49.380;8.998;2023-07-31T16:51:18;23.50;81.90
26103;DHT22;69760;49.380;8.998;2023-07-31T16:53:45;23.60;81.50
26103;DHT22;69760;49.380;8.998;2023-07-31T16:56:11;23.50;81.10
26103;DHT22;69760;49.380;8.998;2023-07-31T16:58:37;23.40;82.10
26103;DHT22;69760;49.380;8.998;2023-07-31T17:01:03;23.50;82.50
26103;DHT22;69760;49.380;8.998;2023-07-31T17:03:28;23.50;82.70
26103;DHT22;69760;49.380;8.998;2023-07-31T17:05:54;23.40;81.90
26103;DHT22;69760;49.380;8.998;2023-07-31T17:08:20;23.30;82.50
26103;DHT22;69760;49.380;8.998;2023-07-31T17:10:45;23.20;83.20
26103;DHT22;69760;49.380;8.998;2023-07-31T17:13:11;23.30;83.20
26103;DHT22;69760;49.380;8.998;2023-07-31T17:15:37;23.20;85.90
26103;DHT22;69760;49.380;8.998;2023-07-31T17:18:02;23.30;89.60
26103;DHT22;69760;49.380;8.998;2023-07-31T17:20:29;23.20;87.10
26103;DHT22;69760;49.380;8.998;2023-07-31T17:22:57;23.10;88.70
26103;DHT22;69760;49.380;8.998;2023-07-31T17:25:23;23.10;89.50
26103;DHT22;69760;49.380;8.998;2023-07-31T17:27:48;23.00;89.40
26103;DHT22;69760;49.380;8.998;2023-07-31T17:30:14;22.90;88.80
26103;DHT22;69760;49.380;8.998;2023-07-31T17:32:39;22.90;89.50
26103;DHT22;69760;49.380;8.998;2023-07-31T17:35:05;22.80;90.30
26103;DHT22;69760;49.380;8.998;2023-07-31T17:37:31;22.60;90.90
26103;DHT22;69760;49.380;8.998;2023-07-31T17:39:56;22.40;91.00
26103;DHT22;69760;49.380;8.998;2023-07-31T17:42:22;22.30;91.80
26103;DHT22;69760;49.380;8.998;2023-07-31T17:44:48;22.10;91.90
26103;DHT22;69760;49.380;8.998;2023-07-31T17:47:13;22.00;92.40
26103;DHT22;69760;49.380;8.998;2023-07-31T17:49:39;21.90;92.90
26103;DHT22;69760;49.380;8.998;2023-07-31T17:52:05;21.80;93.30
26103;DHT22;69760;49.380;8.998;2023-07-31T17:54:31;21.60;93.40
26103;DHT22;69760;49.380;8.998;2023-07-31T17:56:56;21.60;94.40
26103;DHT22;69760;49.380;8.998;2023-07-31T17:59:22;21.40;94.70
26103;DHT22;69760;49.380;8.998;2023-07-31T18:01:48;21.20;95.90
26103;DHT22;69760;49.380;8.998;2023-07-31T18:04:16;21.00;96.20
26103;DHT22;69760;49.380;8.998;2023-07-31T18:06:41;20.80;97.50
26103;DHT22;69760;49.380;8.998;2023-07-31T18:09:08;20.70;99.60
26103;DHT22;69760;49.380;8.998;2023-07-31T18:11:34;20.70;99.50
26103;DHT22;69760;49.380;8.998;2023-07-31T18:14:00;20.70;99.90
26103;DHT22;69760;49.380;8.998;2023-07-31T18:16:26;20.80;99.90
26103;DHT22;69760;49.380;8.998;2023-07-31T18:18:51;20.80;99.90
26103;DHT22;69760;49.380;8.998;2023-07-31T18:21:17;20.80;99.90
26103;DHT22;69760;49.380;8.998;2023-07-31T18:23:46;20.80;99.90
26103;DHT22;69760;49.380;8.998;2023-07-31T18:26:11;20.80;99.90
26103;DHT22;69760;49.380;8.998;2023-07-31T18:28:37;20.80;99.90
26103;DHT22;69760;49.380;8.998;2023-07-31T18:31:02;20.80;99.90
26103;DHT22;69760;49.380;8.998;2023-07-31T18:33:28;20.70;99.90
26103;DHT22;69760;49.380;8.998;2023-07-31T18:35:54;20.70;99.90
26103;DHT22;69760;49.380;8.998;2023-07-31T18:38:20;20.80;99.90
26103;DHT22;69760;49.380;8.998;2023-07-31T18:40:46;20.80;99.90
26103;DHT22;69760;49.380;8.998;2023-07-31T18:43:12;20.80;99.90
26103;DHT22;69760;49.380;8.998;2023-07-31T18:45:38;20.80;99.90
26103;DHT22;69760;49.380;8.998;2023-07-31T18:48:03;20.80;99.90
26103;DHT22;69760;49.380;8.998;2023-07-31T18:50:29;20.80;99.90
26103;DHT22;69760;49.380;8.998;2023-07-31T18:52:55;20.80;99.90
26103;DHT22;69760;49.380;8.998;2023-07-31T18:55:20;20.80;99.90
26103;DHT22;69760;49.380;8.998;2023-07-31T18:57:46;20.80;99.90
26103;DHT22;69760;49.380;8.998;2023-07-31T19:00:12;20.80;99.90
26103;DHT22;69760;49.380;8.998;2023-07-31T19:02:38;20.80;99.90